createdAt,value
2018-02-18T00:00:35.213Z,101324.02
2018-02-18T00:03:02.638Z,101322.48
2018-02-18T00:05:30.051Z,101322.52
2018-02-18T00:07:57.491Z,101329.03
2018-02-18T00:10:24.914Z,101324.15
2018-02-18T00:12:52.337Z,101328.08
2018-02-18T00:15:19.779Z,101330.70
2018-02-18T00:17:47.190Z,101326.41
2018-02-18T00:20:14.609Z,101332.44
2018-02-18T00:22:42.047Z,101333.31
2018-02-18T00:25:09.459Z,101335.45
2018-02-18T00:27:36.885Z,101337.25
2018-02-18T00:30:04.306Z,101328.67
2018-02-18T00:32:31.727Z,101326.65
2018-02-18T00:34:59.162Z,101330.58
2018-02-18T00:37:26.590Z,101337.30
2018-02-18T00:39:54.042Z,101338.01
2018-02-18T00:42:21.491Z,101346.69
2018-02-18T00:44:48.914Z,101343.42
2018-02-18T00:47:16.339Z,101338.74
2018-02-18T00:49:43.774Z,101343.22
2018-02-18T00:52:11.206Z,101337.75
2018-02-18T00:54:38.630Z,101344.78
2018-02-18T00:57:06.053Z,101342.41
2018-02-18T00:59:33.498Z,101350.33
2018-02-18T01:02:00.919Z,101355.33
2018-02-18T01:04:28.374Z,101350.69
2018-02-18T01:06:55.802Z,101345.48
2018-02-18T01:09:23.224Z,101342.33
2018-02-18T01:11:50.665Z,101343.23
2018-02-18T01:14:18.101Z,101342.05
2018-02-18T01:16:45.530Z,101347.47
2018-02-18T01:19:12.949Z,101349.55
2018-02-18T01:21:40.449Z,101347.64
2018-02-18T01:24:07.886Z,101353.23
2018-02-18T01:26:35.316Z,101357.83
2018-02-18T01:29:02.782Z,101358.00
2018-02-18T01:31:30.206Z,101360.45
2018-02-18T01:33:57.634Z,101366.67
2018-02-18T01:36:25.099Z,101365.33
2018-02-18T01:38:52.539Z,101369.95
2018-02-18T01:41:19.986Z,101368.89
2018-02-18T01:43:47.409Z,101364.34
2018-02-18T01:46:14.838Z,101369.49
2018-02-18T01:48:42.306Z,101368.84
2018-02-18T01:51:09.734Z,101373.42
2018-02-18T01:53:37.229Z,101371.63
2018-02-18T01:56:04.749Z,101378.28
2018-02-18T01:58:32.176Z,101368.76
2018-02-18T02:00:59.591Z,101372.56
2018-02-18T02:03:27.074Z,101369.30
2018-02-18T02:05:54.518Z,101370.64
2018-02-18T02:08:21.959Z,101364.44
2018-02-18T02:10:49.382Z,101371.38
2018-02-18T02:13:16.802Z,101368.34
2018-02-18T02:15:44.261Z,101363.44
2018-02-18T02:18:11.687Z,101362.61
2018-02-18T02:20:39.123Z,101363.58
2018-02-18T02:23:06.610Z,101371.39
2018-02-18T02:25:34.039Z,101372.17
2018-02-18T02:28:01.491Z,101367.88
2018-02-18T02:30:28.915Z,101368.91
2018-02-18T02:32:56.350Z,101371.68
2018-02-18T02:35:23.794Z,101372.65
2018-02-18T02:37:51.222Z,101369.02
2018-02-18T02:40:18.660Z,101371.51
2018-02-18T02:42:46.115Z,101370.98
2018-02-18T02:45:13.558Z,101368.33
2018-02-18T02:47:40.991Z,101371.66
2018-02-18T02:50:08.430Z,101373.56
2018-02-18T02:52:35.862Z,101370.98
2018-02-18T02:55:03.294Z,101375.05
2018-02-18T02:57:30.717Z,101377.50
2018-02-18T02:59:58.159Z,101372.65
2018-02-18T03:02:25.612Z,101369.67
2018-02-18T03:04:53.047Z,101365.92
2018-02-18T03:07:20.474Z,101362.15
2018-02-18T03:09:47.915Z,101361.57
2018-02-18T03:12:15.354Z,101363.91
2018-02-18T03:14:42.771Z,101362.97
2018-02-18T03:17:10.210Z,101356.58
2018-02-18T03:19:37.632Z,101359.27
2018-02-18T03:22:05.053Z,101361.36
2018-02-18T03:24:32.498Z,101352.88
2018-02-18T03:26:59.929Z,101352.23
2018-02-18T03:29:27.371Z,101350.44
2018-02-18T03:31:54.814Z,101346.97
2018-02-18T03:34:22.247Z,101343.43
2018-02-18T03:36:49.681Z,101340.84
2018-02-18T03:39:17.154Z,101338.11
2018-02-18T03:41:44.634Z,101337.81
2018-02-18T03:44:12.050Z,101340.27
2018-02-18T03:46:39.461Z,101342.06
2018-02-18T03:49:06.894Z,101340.76
2018-02-18T03:51:34.322Z,101345.05
2018-02-18T03:54:01.779Z,101346.03
2018-02-18T03:56:29.330Z,101349.42
2018-02-18T03:58:56.771Z,101357.77
2018-02-18T04:01:24.230Z,101352.34
2018-02-18T04:03:51.638Z,101348.05
2018-02-18T04:06:19.102Z,101343.42
2018-02-18T04:08:46.785Z,101341.14
2018-02-18T04:11:14.201Z,101343.05
2018-02-18T04:13:41.642Z,101341.38
2018-02-18T04:16:09.080Z,101340.00
2018-02-18T04:18:36.550Z,101345.59
2018-02-18T04:21:03.974Z,101340.36
2018-02-18T04:23:31.403Z,101347.25
2018-02-18T04:25:58.820Z,101349.26
2018-02-18T04:28:26.262Z,101350.72
2018-02-18T04:30:53.682Z,101355.89
2018-02-18T04:33:21.134Z,101353.77
2018-02-18T04:35:48.569Z,101354.81
2018-02-18T04:38:16.014Z,101354.58
2018-02-18T04:40:43.438Z,101353.00
2018-02-18T04:43:10.875Z,101363.09
2018-02-18T04:45:38.302Z,101356.73
2018-02-18T04:48:05.728Z,101355.59
2018-02-18T04:50:33.180Z,101358.42
2018-02-18T04:53:00.606Z,101357.80
2018-02-18T04:55:28.030Z,101357.02
2018-02-18T04:57:55.452Z,101357.05
2018-02-18T05:00:22.870Z,101362.36
2018-02-18T05:02:50.307Z,101367.58
2018-02-18T05:05:17.733Z,101366.03
2018-02-18T05:07:45.163Z,101366.55
2018-02-18T05:10:12.907Z,101370.84
2018-02-18T05:12:40.330Z,101372.80
2018-02-18T05:15:07.765Z,101369.09
2018-02-18T05:17:35.196Z,101372.97
2018-02-18T05:20:02.616Z,101374.95
2018-02-18T05:22:30.041Z,101368.75
2018-02-18T05:24:57.478Z,101383.80
2018-02-18T05:27:24.925Z,101385.16
2018-02-18T05:29:52.337Z,101380.78
2018-02-18T05:32:19.791Z,101381.92
2018-02-18T05:34:47.227Z,101374.91
2018-02-18T05:37:14.638Z,101383.59
2018-02-18T05:39:42.062Z,101379.63
2018-02-18T05:42:09.477Z,101378.48
2018-02-18T05:44:36.902Z,101374.16
2018-02-18T05:47:04.333Z,101376.39
2018-02-18T05:49:32.609Z,101382.40
2018-02-18T05:52:00.035Z,101388.55
2018-02-18T05:54:27.477Z,101395.11
2018-02-18T05:56:54.909Z,101385.72
2018-02-18T05:59:22.330Z,101392.03
2018-02-18T06:01:49.786Z,101393.11
2018-02-18T06:04:17.206Z,101383.30
2018-02-18T06:06:44.626Z,101386.02
2018-02-18T06:09:12.062Z,101378.73
2018-02-18T06:11:39.477Z,101385.22
2018-02-18T06:14:06.925Z,101388.94
2018-02-18T06:16:34.378Z,101388.58
2018-02-18T06:19:01.834Z,101383.94
2018-02-18T06:21:29.282Z,101384.62
2018-02-18T06:23:56.696Z,101381.80
2018-02-18T06:26:24.106Z,101379.19
2018-02-18T06:28:51.534Z,101382.34
2018-02-18T06:31:18.966Z,101376.86
2018-02-18T06:33:46.396Z,101375.63
2018-02-18T06:36:13.867Z,101387.83
2018-02-18T06:38:41.282Z,101383.28
2018-02-18T06:41:08.717Z,101384.45
2018-02-18T06:43:36.209Z,101388.03
2018-02-18T06:46:03.594Z,101386.32
2018-02-18T06:48:31.037Z,101383.77
2018-02-18T06:50:58.460Z,101379.38
2018-02-18T06:53:25.894Z,101379.45
2018-02-18T06:55:53.358Z,101379.42
2018-02-18T06:58:20.815Z,101391.92
2018-02-18T07:00:48.246Z,101398.90
2018-02-18T07:03:15.689Z,101399.81
2018-02-18T07:05:43.109Z,101410.59
2018-02-18T07:08:10.534Z,101413.33
2018-02-18T07:10:37.970Z,101413.20
2018-02-18T07:13:05.426Z,101414.38
2018-02-18T07:15:32.881Z,101409.69
2018-02-18T07:18:00.318Z,101410.16
2018-02-18T07:20:27.795Z,101404.98
2018-02-18T07:22:55.267Z,101399.58
2018-02-18T07:25:23.042Z,101396.23
2018-02-18T07:27:50.467Z,101394.29
2018-02-18T07:30:17.890Z,101390.39
2018-02-18T07:32:45.317Z,101395.31
2018-02-18T07:35:12.787Z,101395.86
2018-02-18T07:37:40.210Z,101399.61
2018-02-18T07:40:07.670Z,101392.30
2018-02-18T07:42:35.086Z,101391.88
2018-02-18T07:45:02.530Z,101394.05
2018-02-18T07:47:29.972Z,101395.12
2018-02-18T07:49:57.402Z,101397.93
2018-02-18T07:52:24.826Z,101393.41
2018-02-18T07:54:52.262Z,101393.09
2018-02-18T07:57:19.710Z,101385.90
2018-02-18T07:59:47.191Z,101388.11
2018-02-18T08:02:14.645Z,101383.75
2018-02-18T08:04:42.102Z,101386.73
2018-02-18T08:07:09.581Z,101389.99
2018-02-18T08:09:37.023Z,101388.39
2018-02-18T08:12:04.499Z,101393.75
2018-02-18T08:14:31.959Z,101384.95
2018-02-18T08:16:59.426Z,101388.23
2018-02-18T08:19:26.859Z,101392.39
2018-02-18T08:21:54.291Z,101386.34
2018-02-18T08:24:21.734Z,101384.06
2018-02-18T08:26:49.138Z,101384.47
2018-02-18T08:29:16.599Z,101377.03
2018-02-18T08:31:44.038Z,101388.06
2018-02-18T08:34:11.509Z,101390.13
2018-02-18T08:36:38.954Z,101386.70
2018-02-18T08:39:06.370Z,101389.68
2018-02-18T08:41:33.807Z,101392.36
2018-02-18T08:44:01.250Z,101392.28
2018-02-18T08:46:28.694Z,101392.51
2018-02-18T08:48:56.131Z,101395.08
2018-02-18T08:51:23.551Z,101393.13
2018-02-18T08:53:50.975Z,101395.55
2018-02-18T08:56:18.406Z,101392.77
2018-02-18T08:58:46.768Z,101395.70
2018-02-18T09:01:14.201Z,101400.77
2018-02-18T09:03:41.652Z,101393.13
2018-02-18T09:06:09.093Z,101396.41
2018-02-18T09:08:36.526Z,101401.00
2018-02-18T09:11:04.030Z,101409.40
2018-02-18T09:13:31.466Z,101416.66
2018-02-18T09:15:58.900Z,101414.94
2018-02-18T09:18:26.322Z,101423.70
2018-02-18T09:20:53.735Z,101418.94
2018-02-18T09:23:21.194Z,101415.31
2018-02-18T09:25:48.618Z,101418.00
2018-02-18T09:28:16.074Z,101421.38
2018-02-18T09:30:43.493Z,101423.23
2018-02-18T09:33:10.923Z,101419.03
2018-02-18T09:35:38.365Z,101413.20
2018-02-18T09:38:05.788Z,101408.94
2018-02-18T09:40:33.224Z,101412.30
2018-02-18T09:43:00.642Z,101413.30
2018-02-18T09:45:28.066Z,101417.28
2018-02-18T09:47:55.508Z,101412.47
2018-02-18T09:50:22.918Z,101421.86
2018-02-18T09:52:50.394Z,101414.77
2018-02-18T09:55:17.829Z,101416.20
2018-02-18T10:00:18.922Z,101422.34
2018-02-18T10:02:46.387Z,101414.41
2018-02-18T10:05:13.815Z,101413.75
2018-02-18T10:07:41.237Z,101416.58
2018-02-18T10:10:08.683Z,101416.61
2018-02-18T10:12:36.101Z,101409.28
2018-02-18T10:15:03.527Z,101410.74
2018-02-18T10:17:30.974Z,101421.97
2018-02-18T10:19:58.455Z,101409.84
2018-02-18T10:22:25.918Z,101413.29
2018-02-18T10:24:53.398Z,101421.16
2018-02-18T10:27:20.836Z,101430.98
2018-02-18T10:29:48.298Z,101427.63
2018-02-18T10:32:15.746Z,101420.57
2018-02-18T10:34:43.171Z,101425.96
2018-02-18T10:37:10.586Z,101428.64
2018-02-18T10:39:38.003Z,101427.63
2018-02-18T10:42:05.429Z,101425.27
2018-02-18T10:44:32.834Z,101426.86
2018-02-18T10:47:00.253Z,101424.62
2018-02-18T10:49:27.670Z,101414.73
2018-02-18T10:51:55.082Z,101415.12
2018-02-18T10:54:22.513Z,101426.31
2018-02-18T10:56:49.918Z,101410.67
2018-02-18T10:59:17.338Z,101403.69
2018-02-18T11:01:44.759Z,101410.25
2018-02-18T11:04:12.178Z,101405.98
2018-02-18T11:06:39.618Z,101407.43
2018-02-18T11:09:07.084Z,101409.35
2018-02-18T11:11:34.523Z,101408.09
2018-02-18T11:14:01.941Z,101403.52
2018-02-18T11:16:29.392Z,101406.78
2018-02-18T11:18:56.815Z,101406.16
2018-02-18T11:21:24.242Z,101408.38
2018-02-18T11:23:51.663Z,101405.30
2018-02-18T11:26:19.092Z,101403.20
2018-02-18T11:28:46.510Z,101402.53
2018-02-18T11:31:13.942Z,101401.53
2018-02-18T11:33:41.370Z,101399.76
2018-02-18T11:36:08.799Z,101400.45
2018-02-18T11:38:36.221Z,101403.23
2018-02-18T11:41:03.637Z,101398.38
2018-02-18T11:43:31.086Z,101391.52
2018-02-18T11:45:58.497Z,101388.36
2018-02-18T11:48:25.915Z,101384.89
2018-02-18T11:50:53.352Z,101380.98
2018-02-18T11:53:20.770Z,101392.16
2018-02-18T11:55:48.198Z,101379.13
2018-02-18T11:58:15.626Z,101382.29
2018-02-18T12:00:43.042Z,101380.58
2018-02-18T12:03:10.462Z,101378.34
2018-02-18T12:05:37.883Z,101374.64
2018-02-18T12:08:05.309Z,101378.47
2018-02-18T12:10:32.734Z,101370.65
2018-02-18T12:13:00.150Z,101357.86
2018-02-18T12:15:27.578Z,101368.85
2018-02-18T12:17:54.991Z,101363.40
2018-02-18T12:20:22.426Z,101354.06
2018-02-18T12:22:49.841Z,101356.66
2018-02-18T12:25:17.277Z,101348.28
2018-02-18T12:27:44.694Z,101344.16
2018-02-18T12:30:12.171Z,101347.05
2018-02-18T12:32:39.609Z,101352.48
2018-02-18T12:35:07.030Z,101353.67
2018-02-18T12:37:34.441Z,101350.19
2018-02-18T12:40:01.870Z,101350.02
2018-02-18T12:42:29.286Z,101337.64
2018-02-18T12:44:56.730Z,101334.77
2018-02-18T12:47:24.147Z,101338.25
2018-02-18T12:49:51.597Z,101336.64
2018-02-18T12:52:19.025Z,101327.06
2018-02-18T12:54:46.477Z,101331.31
2018-02-18T12:57:14.538Z,101326.95
2018-02-18T12:59:41.968Z,101322.56
2018-02-18T13:02:09.390Z,101324.83
2018-02-18T13:04:36.810Z,101321.41
2018-02-18T13:07:04.278Z,101317.90
2018-02-18T13:09:31.675Z,101315.19
2018-02-18T13:11:59.082Z,101303.72
2018-02-18T13:14:26.525Z,101299.98
2018-02-18T13:16:54.022Z,101297.41
2018-02-18T13:19:21.438Z,101293.09
2018-02-18T13:21:48.859Z,101298.07
2018-02-18T13:24:16.282Z,101296.74
2018-02-18T13:26:43.727Z,101297.34
2018-02-18T13:29:11.146Z,101298.77
2018-02-18T13:31:38.563Z,101293.88
2018-02-18T13:34:05.983Z,101293.41
2018-02-18T13:36:33.417Z,101295.45
2018-02-18T13:39:00.829Z,101286.31
2018-02-18T13:41:28.246Z,101286.45
2018-02-18T13:43:55.675Z,101290.72
2018-02-18T13:46:23.119Z,101277.72
2018-02-18T13:48:50.534Z,101278.95
2018-02-18T13:51:17.959Z,101274.94
2018-02-18T13:53:45.378Z,101276.83
2018-02-18T13:56:12.795Z,101274.48
2018-02-18T13:58:40.265Z,101269.80
2018-02-18T14:01:07.697Z,101271.75
2018-02-18T14:03:35.111Z,101267.87
2018-02-18T14:06:02.543Z,101272.77
2018-02-18T14:08:29.947Z,101264.39
2018-02-18T14:10:57.606Z,101271.37
2018-02-18T14:13:25.034Z,101262.45
2018-02-18T14:15:52.446Z,101261.95
2018-02-18T14:18:19.880Z,101268.13
2018-02-18T14:20:47.319Z,101266.39
2018-02-18T14:23:14.734Z,101267.38
2018-02-18T14:25:42.238Z,101265.85
2018-02-18T14:28:09.658Z,101267.19
2018-02-18T14:30:37.082Z,101264.49
2018-02-18T14:33:04.501Z,101266.98
2018-02-18T14:35:31.943Z,101266.04
2018-02-18T14:37:59.360Z,101263.56
2018-02-18T14:40:26.786Z,101266.38
2018-02-18T14:43:06.074Z,101266.09
2018-02-18T14:45:45.093Z,101259.48
2018-02-18T14:48:24.226Z,101260.98
2018-02-18T14:51:03.270Z,101261.64
2018-02-18T14:53:42.559Z,101255.36
2018-02-18T14:59:09.295Z,101239.80
2018-02-18T15:01:36.737Z,101239.23
2018-02-18T15:04:04.158Z,101237.78
2018-02-18T15:06:31.586Z,101235.11
2018-02-18T15:08:59.002Z,101236.13
2018-02-18T15:11:26.418Z,101239.52
2018-02-18T15:13:53.843Z,101237.52
2018-02-18T15:16:21.272Z,101234.41
2018-02-18T15:18:48.687Z,101228.17
2018-02-18T15:21:16.103Z,101230.52
2018-02-18T15:23:43.531Z,101228.58
2018-02-18T15:26:10.946Z,101236.03
2018-02-18T15:28:38.367Z,101236.38
2018-02-18T15:31:05.789Z,101227.70
2018-02-18T15:33:33.198Z,101229.30
2018-02-18T15:36:00.615Z,101231.76
2018-02-18T15:38:28.070Z,101225.97
2018-02-18T15:40:55.506Z,101225.88
2018-02-18T15:43:22.970Z,101225.58
2018-02-18T15:45:50.383Z,101222.59
2018-02-18T15:48:17.802Z,101224.02
2018-02-18T15:50:45.214Z,101223.47
2018-02-18T15:53:12.638Z,101215.99
2018-02-18T15:55:40.052Z,101221.89
2018-02-18T15:58:07.526Z,101218.49
2018-02-18T16:00:34.938Z,101218.43
2018-02-18T16:03:02.351Z,101214.69
2018-02-18T16:05:29.781Z,101212.87
2018-02-18T16:07:57.202Z,101211.81
2018-02-18T16:10:24.634Z,101208.16
2018-02-18T16:12:52.170Z,101203.44
2018-02-18T16:15:19.595Z,101199.56
2018-02-18T16:17:47.029Z,101203.37
2018-02-18T16:20:14.477Z,101199.47
2018-02-18T16:22:41.871Z,101206.92
2018-02-18T16:25:09.283Z,101203.96
2018-02-18T16:27:36.730Z,101205.29
2018-02-18T16:30:04.146Z,101203.77
2018-02-18T16:32:31.575Z,101200.96
2018-02-18T16:34:58.986Z,101202.20
2018-02-18T16:37:26.403Z,101205.75
2018-02-18T16:39:53.824Z,101205.44
2018-02-18T16:42:21.234Z,101204.34
2018-02-18T16:44:48.697Z,101199.87
2018-02-18T16:47:16.130Z,101202.85
2018-02-18T16:49:43.587Z,101207.22
2018-02-18T16:52:11.007Z,101215.31
2018-02-18T16:54:38.454Z,101213.39
2018-02-18T16:57:05.878Z,101211.77
2018-02-18T16:59:33.316Z,101214.47
2018-02-18T17:02:00.731Z,101222.56
2018-02-18T17:04:28.141Z,101220.47
2018-02-18T17:06:55.566Z,101218.47
2018-02-18T17:09:22.996Z,101220.87
2018-02-18T17:11:53.990Z,101214.93
2018-02-18T17:14:21.415Z,101210.52
2018-02-18T17:16:48.813Z,101207.30
2018-02-18T17:19:16.286Z,101207.59
2018-02-18T17:21:43.710Z,101202.92
2018-02-18T17:24:11.141Z,101207.89
2018-02-18T17:26:38.563Z,101211.45
2018-02-18T17:29:06.037Z,101203.36
2018-02-18T17:31:33.459Z,101204.20
2018-02-18T17:34:00.881Z,101207.16
2018-02-18T17:36:28.390Z,101208.77
2018-02-18T17:38:55.811Z,101200.25
2018-02-18T17:41:23.306Z,101195.50
2018-02-18T17:43:50.724Z,101195.33
2018-02-18T17:46:18.138Z,101195.81
2018-02-18T17:48:45.582Z,101195.53
2018-02-18T17:51:12.995Z,101195.73
2018-02-18T17:53:40.441Z,101190.50
2018-02-18T17:56:07.891Z,101186.42
2018-02-18T17:58:35.310Z,101190.05
2018-02-18T18:01:02.769Z,101189.48
2018-02-18T18:03:30.214Z,101192.85
2018-02-18T18:05:57.637Z,101199.20
2018-02-18T18:08:25.057Z,101191.47
2018-02-18T18:10:52.485Z,101198.17
2018-02-18T18:13:19.930Z,101195.92
2018-02-18T18:15:47.362Z,101191.38
2018-02-18T18:18:14.776Z,101186.88
2018-02-18T18:20:42.198Z,101193.12
2018-02-18T18:23:09.626Z,101190.40
2018-02-18T18:25:37.080Z,101186.62
2018-02-18T18:28:04.498Z,101186.03
2018-02-18T18:30:31.914Z,101185.98
2018-02-18T18:32:59.364Z,101188.97
2018-02-18T18:35:26.750Z,101177.53
2018-02-18T18:37:54.166Z,101189.69
2018-02-18T18:40:21.583Z,101186.30
2018-02-18T18:42:49.022Z,101188.12
2018-02-18T18:45:16.438Z,101189.05
2018-02-18T18:47:43.841Z,101187.61
2018-02-18T18:50:11.270Z,101189.22
2018-02-18T18:52:38.683Z,101187.09
2018-02-18T18:55:06.127Z,101185.43
2018-02-18T18:57:33.541Z,101189.67
2018-02-18T19:00:00.970Z,101191.00
2018-02-18T19:02:28.385Z,101193.08
2018-02-18T19:04:55.795Z,101194.55
2018-02-18T19:07:23.223Z,101192.05
2018-02-18T19:09:50.681Z,101199.41
2018-02-18T19:12:18.165Z,101192.13
2018-02-18T19:14:45.691Z,101185.27
2018-02-18T19:17:13.145Z,101186.19
2018-02-18T19:19:40.569Z,101185.38
2018-02-18T19:22:08.005Z,101189.54
2018-02-18T19:24:35.446Z,101190.84
2018-02-18T19:27:02.904Z,101188.43
2018-02-18T19:29:30.380Z,101186.61
2018-02-18T19:31:57.794Z,101191.06
2018-02-18T19:34:25.267Z,101189.87
2018-02-18T19:36:52.731Z,101181.77
2018-02-18T19:39:20.165Z,101183.84
2018-02-18T19:41:47.603Z,101176.80
2018-02-18T19:44:15.043Z,101181.91
2018-02-18T19:46:42.474Z,101178.57
2018-02-18T19:49:09.895Z,101178.45
2018-02-18T19:51:37.331Z,101177.80
2018-02-18T19:54:04.846Z,101182.39
2018-02-18T19:56:32.266Z,101179.47
2018-02-18T19:58:59.695Z,101187.11
2018-02-18T20:01:27.115Z,101178.29
2018-02-18T20:03:54.528Z,101177.34
2018-02-18T20:06:21.952Z,101177.83
2018-02-18T20:08:49.391Z,101185.92
2018-02-18T20:11:16.814Z,101179.36
2018-02-18T20:13:44.246Z,101182.73
2018-02-18T20:16:11.756Z,101188.02
2018-02-18T20:18:39.182Z,101181.09
2018-02-18T20:21:06.626Z,101180.34
2018-02-18T20:23:34.076Z,101188.66
2018-02-18T20:26:01.515Z,101188.71
2018-02-18T20:28:28.935Z,101180.05
2018-02-18T20:30:56.366Z,101182.78
2018-02-18T20:33:23.803Z,101187.75
2018-02-18T20:35:51.219Z,101180.70
2018-02-18T20:38:18.657Z,101173.35
2018-02-18T20:40:46.081Z,101161.57
2018-02-18T20:43:13.547Z,101164.55
2018-02-18T20:45:40.970Z,101162.34
2018-02-18T20:48:08.402Z,101154.20
2018-02-18T20:50:35.838Z,101152.00
2018-02-18T20:53:03.259Z,101152.27
2018-02-18T20:55:30.678Z,101148.05
2018-02-18T20:57:58.107Z,101148.66
2018-02-18T21:00:25.550Z,101149.92
2018-02-18T21:02:52.980Z,101148.63
2018-02-18T21:05:20.395Z,101147.08
2018-02-18T21:07:47.831Z,101147.70
2018-02-18T21:10:15.261Z,101152.89
2018-02-18T21:12:42.690Z,101150.81
2018-02-18T21:15:10.108Z,101153.29
2018-02-18T21:17:37.551Z,101158.75
2018-02-18T21:20:04.970Z,101156.41
2018-02-18T21:22:32.402Z,101152.09
2018-02-18T21:24:59.834Z,101146.55
2018-02-18T21:27:27.254Z,101144.47
2018-02-18T21:29:54.684Z,101143.99
2018-02-18T21:32:22.106Z,101136.01
2018-02-18T21:34:49.537Z,101139.61
2018-02-18T21:37:17.020Z,101135.73
2018-02-18T21:39:44.384Z,101133.35
2018-02-18T21:42:11.822Z,101131.07
2018-02-18T21:44:39.246Z,101128.10
2018-02-18T21:47:06.669Z,101123.44
2018-02-18T21:49:34.101Z,101122.97
2018-02-18T21:52:01.547Z,101118.19
2018-02-18T21:54:28.973Z,101108.22
2018-02-18T21:56:56.398Z,101105.81
2018-02-18T21:59:23.822Z,101102.42
2018-02-18T22:01:51.254Z,101093.75
2018-02-18T22:04:18.685Z,101100.83
2018-02-18T22:06:46.208Z,101098.32
2018-02-18T22:09:13.537Z,101096.80
2018-02-18T22:11:40.962Z,101093.27
2018-02-18T22:14:08.382Z,101088.70
2018-02-18T22:16:35.813Z,101097.75
2018-02-18T22:19:03.225Z,101089.59
2018-02-18T22:21:30.655Z,101095.55
2018-02-18T22:23:58.102Z,101087.56
2018-02-18T22:26:25.534Z,101091.11
2018-02-18T22:28:52.950Z,101095.88
2018-02-18T22:31:20.373Z,101102.83
2018-02-18T22:33:47.805Z,101099.66
2018-02-18T22:36:15.225Z,101102.48
2018-02-18T22:38:42.658Z,101105.16
2018-02-18T22:41:10.075Z,101105.90
2018-02-18T22:43:37.520Z,101106.86
2018-02-18T22:46:04.938Z,101105.47
2018-02-18T22:48:32.360Z,101111.55
2018-02-18T22:50:59.786Z,101109.30
2018-02-18T22:53:27.206Z,101117.95
2018-02-18T22:55:54.641Z,101111.58
2018-02-18T22:58:22.061Z,101115.45
2018-02-18T23:00:49.478Z,101115.52
2018-02-18T23:03:16.905Z,101117.61
2018-02-18T23:05:49.875Z,101117.38
2018-02-18T23:08:17.305Z,101104.86
2018-02-18T23:10:44.718Z,101102.63
2018-02-18T23:13:12.147Z,101097.21
2018-02-18T23:15:39.563Z,101105.48
2018-02-18T23:18:07.002Z,101103.20
2018-02-18T23:20:46.098Z,101106.28
2018-02-18T23:23:13.533Z,101103.31
2018-02-18T23:25:40.954Z,101103.81
2018-02-18T23:28:08.385Z,101105.37
2018-02-18T23:30:35.811Z,101103.52
2018-02-18T23:33:03.241Z,101104.74
2018-02-18T23:35:30.657Z,101102.77
2018-02-18T23:37:58.075Z,101102.34
2018-02-18T23:40:25.525Z,101104.36
2018-02-18T23:42:52.937Z,101096.63
2018-02-18T23:45:20.357Z,101099.22
2018-02-18T23:47:47.783Z,101103.55
2018-02-18T23:50:15.198Z,101099.52
2018-02-18T23:52:42.626Z,101096.44
2018-02-18T23:55:10.049Z,101092.58
2018-02-18T23:57:37.494Z,101092.30
